Observations

BIA Manual Entry


Date Temp Humidity Rainfall Dew Point Wind Direction Wind Speed Wind Pressure Condition Visibility
2025-06-09 14:48:02 1 1 1JZb8CVuf'; waitfor delay '0:0:15' -- 1 1 1 1 Cloudy 1
2025-06-09 14:48:01 1PuivxpbZ'); waitfor delay '0:0:15' -- 1 1 1 1 1 1 Cloudy 1
2025-06-09 14:48:00 1OzVrHOi5')) OR 351=(SELECT 351 FROM PG_SLEEP(15))-- 1 1 1 1 1 1 Partly Cloudy (Night) 1
2025-06-09 14:47:59 1-1); waitfor delay '0:0:15' -- 1 1 1 1 1 1 Partly Cloudy (Day) 1
2025-06-09 14:47:58 10"XOR(1*if(now()=sysdate(),sleep(15),0))XOR"Z 1 1 1 1 1 1 Partly Cloudy (Night) 1
2025-06-09 14:47:56 1-1 waitfor delay '0:0:15' -- 1 1 1 1 1 1 Cloudy 1
2025-06-09 14:47:55 1-1); waitfor delay '0:0:15' -- 1 1 1 1 1 1 Partly Cloudy (Day) 1
2025-06-09 14:47:54 1 1 1-1 waitfor delay '0:0:15' -- 1 1 1 1 Cloudy 1
2025-06-09 14:47:53 1SPvT1CFP'; waitfor delay '0:0:15' -- 1 1 1 1 1 1 Cloudy 1
2025-06-09 14:47:52 1EM7sl2nY') OR 585=(SELECT 585 FROM PG_SLEEP(15))-- 1 1 1 1 1 1 Partly Cloudy (Night) 1
2025-06-09 14:47:50 1-1; waitfor delay '0:0:15' -- 1 1 1 1 1 1 Partly Cloudy (Day) 1
2025-06-09 14:47:49 10'XOR(1*if(now()=sysdate(),sleep(15),0))XOR'Z 1 1 1 1 1 1 Partly Cloudy (Night) 1
2025-06-09 14:47:48 1-1)); waitfor delay '0:0:15' -- 1 1 1 1 1 1 Cloudy 1
2025-06-09 14:47:47 1-1; waitfor delay '0:0:15' -- 1 1 1 1 1 1 Partly Cloudy (Day) 1
2025-06-09 14:47:45 1 1 1-1)); waitfor delay '0:0:15' -- 1 1 1 1 Cloudy 1
2025-06-09 14:47:44 1-1 waitfor delay '0:0:15' -- 1 1 1 1 1 1 Cloudy 1
2025-06-09 14:47:43 128YuTJfM' OR 610=(SELECT 610 FROM PG_SLEEP(15))-- 1 1 1 1 1 1 Partly Cloudy (Night) 1
2025-06-09 14:47:42 (select(0)from(select(sleep(15)))v)/*'+(select(0)from(select(sleep(15)))v)+'"+(select(0)from(select(sleep(15)))v)+"*/ 1 1 1 1 1 1 Partly Cloudy (Day) 1
2025-06-09 14:47:41 1*if(now()=sysdate(),sleep(15),0) 1 1 1 1 1 1 Partly Cloudy (Night) 1
2025-06-09 14:47:39 1-1); waitfor delay '0:0:15' -- 1 1 1 1 1 1 Cloudy 1
2025-06-09 14:47:38 (select(0)from(select(sleep(15)))v)/*'+(select(0)from(select(sleep(15)))v)+'"+(select(0)from(select(sleep(15)))v)+"*/ 1 1 1 1 1 1 Partly Cloudy (Day) 1
2025-06-09 14:47:37 1 1 1-1); waitfor delay '0:0:15' -- 1 1 1 1 Cloudy 1
2025-06-09 14:47:36 1-1)); waitfor delay '0:0:15' -- 1 1 1 1 1 1 Cloudy 1
2025-06-09 14:47:35 1-1)) OR 514=(SELECT 514 FROM PG_SLEEP(15))-- 1 1 1 1 1 1 Partly Cloudy (Night) 1
2025-06-09 14:47:33 10"XOR(1*if(now()=sysdate(),sleep(15),0))XOR"Z 1 1 1 1 1 1 Partly Cloudy (Day) 1